createdAt,value
2017-07-27T00:00:22.223Z,84.50
2017-07-27T00:01:22.859Z,84.79
2017-07-27T00:02:23.495Z,84.59
2017-07-27T00:03:24.129Z,84.89
2017-07-27T00:04:24.769Z,84.55
2017-07-27T00:05:25.706Z,84.69
2017-07-27T00:06:26.344Z,84.79
2017-07-27T00:07:26.979Z,84.31
2017-07-27T00:08:27.618Z,84.41
2017-07-27T00:09:28.250Z,84.59
2017-07-27T00:10:28.888Z,84.98
2017-07-27T00:11:29.520Z,84.89
2017-07-27T00:12:30.159Z,84.98
2017-07-27T00:13:30.791Z,84.98
2017-07-27T00:14:31.583Z,84.98
2017-07-27T00:15:32.225Z,84.59
2017-07-27T00:16:32.856Z,84.69
2017-07-27T00:17:33.546Z,84.59
2017-07-27T00:18:34.178Z,84.27
2017-07-27T00:19:34.825Z,84.98
2017-07-27T00:20:35.455Z,84.98
2017-07-27T00:21:36.089Z,84.59
2017-07-27T00:22:36.875Z,85.13
2017-07-27T00:23:37.510Z,84.84
2017-07-27T00:24:38.146Z,84.98
2017-07-27T00:25:38.783Z,84.94
2017-07-27T00:26:39.417Z,85.27
2017-07-27T00:27:40.052Z,84.75
2017-07-27T00:28:40.694Z,85.03
2017-07-27T00:29:41.331Z,84.94
2017-07-27T00:30:42.112Z,84.84
2017-07-27T00:31:42.752Z,85.03
2017-07-27T00:32:43.389Z,84.94
2017-07-27T00:33:44.025Z,85.23
2017-07-27T00:34:44.665Z,85.42
2017-07-27T00:35:45.295Z,84.65
2017-07-27T00:36:45.933Z,84.84
2017-07-27T00:37:46.574Z,84.65
2017-07-27T00:38:47.356Z,84.46
2017-07-27T00:39:47.992Z,84.75
2017-07-27T00:40:48.626Z,84.55
2017-07-27T00:41:49.267Z,84.46
2017-07-27T00:42:49.901Z,84.94
2017-07-27T00:43:50.534Z,85.03
2017-07-27T00:44:51.170Z,84.84
2017-07-27T00:45:51.805Z,85.13
2017-07-27T00:46:52.446Z,85.23
2017-07-27T00:47:53.278Z,85.33
2017-07-27T00:48:53.914Z,85.03
2017-07-27T00:49:54.549Z,85.03
2017-07-27T00:50:55.191Z,85.13
2017-07-27T00:51:55.823Z,84.94
2017-07-27T00:52:56.463Z,85.33
2017-07-27T00:53:57.102Z,84.65
2017-07-27T00:54:57.739Z,85.42
2017-07-27T00:55:58.570Z,84.84
2017-07-27T00:56:59.206Z,85.33
2017-07-27T00:57:59.846Z,85.03
2017-07-27T00:59:00.485Z,85.23
2017-07-27T01:00:01.121Z,84.94
2017-07-27T01:01:01.754Z,85.23
2017-07-27T01:02:02.392Z,84.46
2017-07-27T01:03:03.043Z,85.52
2017-07-27T01:04:03.864Z,85.52
2017-07-27T01:05:04.498Z,85.33
2017-07-27T01:06:05.140Z,85.61
2017-07-27T01:07:05.776Z,85.71
2017-07-27T01:08:06.412Z,85.13
2017-07-27T01:09:07.051Z,85.03
2017-07-27T01:10:07.688Z,85.33
2017-07-27T01:11:08.325Z,85.42
2017-07-27T01:12:09.164Z,85.91
2017-07-27T01:13:09.800Z,85.23
2017-07-27T01:14:10.430Z,85.03
2017-07-27T01:15:11.065Z,85.46
2017-07-27T01:16:11.708Z,85.33
2017-07-27T01:17:12.343Z,85.81
2017-07-27T01:18:12.975Z,85.71
2017-07-27T01:19:13.618Z,85.33
2017-07-27T01:20:14.453Z,85.42
2017-07-27T01:21:15.092Z,85.33
2017-07-27T01:22:15.724Z,85.33
2017-07-27T01:23:16.364Z,85.33
2017-07-27T01:24:17.002Z,85.42
2017-07-27T01:25:17.634Z,85.42
2017-07-27T01:26:18.272Z,85.81
2017-07-27T01:27:18.905Z,85.42
2017-07-27T01:28:19.546Z,85.33
2017-07-27T01:29:20.380Z,85.52
2017-07-27T01:30:21.017Z,85.33
2017-07-27T01:31:21.656Z,85.91
2017-07-27T01:32:22.290Z,85.37
2017-07-27T01:33:22.924Z,85.91
2017-07-27T01:34:23.564Z,85.42
2017-07-27T01:35:24.197Z,85.81
2017-07-27T01:36:24.836Z,85.52
2017-07-27T01:37:25.668Z,85.52
2017-07-27T01:38:26.254Z,86.00
2017-07-27T01:39:26.888Z,86.00
2017-07-27T01:40:27.522Z,85.52
2017-07-27T01:41:28.169Z,85.81
2017-07-27T01:42:28.805Z,85.61
2017-07-27T01:43:29.447Z,85.91
2017-07-27T01:44:30.078Z,85.52
2017-07-27T01:45:30.859Z,85.33
2017-07-27T01:46:31.498Z,85.42
2017-07-27T01:47:32.137Z,85.61
2017-07-27T01:48:32.770Z,85.71
2017-07-27T01:49:33.404Z,85.81
2017-07-27T01:50:34.050Z,85.81
2017-07-27T01:51:34.683Z,85.81
2017-07-27T01:52:35.323Z,86.00
2017-07-27T01:53:36.154Z,86.00
2017-07-27T01:54:36.788Z,85.91
2017-07-27T01:55:37.427Z,86.00
2017-07-27T01:56:38.057Z,85.71
2017-07-27T01:57:38.693Z,85.61
2017-07-27T01:58:39.328Z,86.00
2017-07-27T01:59:39.965Z,86.10
2017-07-27T02:00:40.605Z,86.19
2017-07-27T02:01:41.238Z,85.91
2017-07-27T02:02:42.187Z,85.71
2017-07-27T02:03:42.813Z,85.91
2017-07-27T02:04:43.445Z,86.19
2017-07-27T02:05:44.085Z,86.58
2017-07-27T02:06:44.719Z,85.91
2017-07-27T02:07:45.359Z,85.81
2017-07-27T02:08:45.991Z,85.81
2017-07-27T02:09:46.639Z,85.81
2017-07-27T02:10:47.477Z,86.00
2017-07-27T02:11:48.106Z,86.10
2017-07-27T02:12:48.753Z,86.00
2017-07-27T02:13:49.385Z,86.29
2017-07-27T02:14:50.027Z,86.19
2017-07-27T02:15:50.663Z,86.10
2017-07-27T02:16:51.293Z,86.48
2017-07-27T02:17:51.930Z,86.29
2017-07-27T02:18:52.763Z,86.77
2017-07-27T02:19:53.406Z,86.00
2017-07-27T02:20:54.039Z,86.68
2017-07-27T02:21:54.679Z,86.58
2017-07-27T02:22:55.311Z,86.48
2017-07-27T02:23:55.948Z,86.48
2017-07-27T02:24:56.586Z,86.48
2017-07-27T02:25:57.220Z,86.68
2017-07-27T02:26:58.009Z,86.39
2017-07-27T02:27:58.640Z,86.48
2017-07-27T02:28:59.281Z,86.77
2017-07-27T02:29:59.919Z,86.77
2017-07-27T02:31:00.553Z,86.58
2017-07-27T02:32:01.187Z,86.48
2017-07-27T02:33:01.827Z,86.68
2017-07-27T02:34:02.465Z,86.96
2017-07-27T02:35:03.295Z,86.87
2017-07-27T02:36:03.935Z,86.96
2017-07-27T02:37:04.575Z,87.54
2017-07-27T02:38:05.206Z,86.96
2017-07-27T02:39:05.791Z,86.77
2017-07-27T02:40:06.429Z,86.77
2017-07-27T02:41:07.063Z,86.77
2017-07-27T02:42:07.704Z,86.77
2017-07-27T02:43:08.336Z,87.35
2017-07-27T02:44:09.172Z,87.26
2017-07-27T02:45:09.806Z,87.54
2017-07-27T02:46:10.448Z,87.35
2017-07-27T02:47:11.091Z,87.35
2017-07-27T02:48:11.727Z,87.35
2017-07-27T02:49:12.357Z,87.06
2017-07-27T02:50:12.998Z,87.26
2017-07-27T02:51:13.637Z,87.26
2017-07-27T02:52:14.468Z,87.74
2017-07-27T02:53:15.104Z,87.35
2017-07-27T02:54:15.737Z,87.35
2017-07-27T02:55:16.389Z,87.35
2017-07-27T02:56:17.022Z,87.64
2017-07-27T02:57:17.658Z,87.93
2017-07-27T02:58:18.290Z,88.12
2017-07-27T02:59:18.925Z,87.93
2017-07-27T03:00:19.721Z,87.54
2017-07-27T03:01:20.351Z,88.22
2017-07-27T03:02:20.985Z,88.02
2017-07-27T03:03:21.623Z,87.64
2017-07-27T03:04:22.260Z,88.22
2017-07-27T03:05:22.899Z,88.12
2017-07-27T03:06:23.532Z,88.02
2017-07-27T03:07:24.168Z,87.93
2017-07-27T03:08:25.001Z,88.22
2017-07-27T03:09:25.638Z,87.83
2017-07-27T03:10:26.278Z,88.22
2017-07-27T03:11:26.910Z,87.83
2017-07-27T03:12:27.543Z,87.83
2017-07-27T03:13:28.177Z,87.93
2017-07-27T03:14:28.818Z,87.93
2017-07-27T03:15:29.455Z,87.83
2017-07-27T03:16:30.087Z,87.83
2017-07-27T03:17:30.884Z,87.74
2017-07-27T03:18:31.520Z,87.83
2017-07-27T03:19:32.158Z,88.41
2017-07-27T03:20:32.793Z,88.12
2017-07-27T03:21:33.427Z,88.22
2017-07-27T03:22:34.069Z,88.12
2017-07-27T03:23:34.705Z,87.83
2017-07-27T03:24:35.339Z,88.22
2017-07-27T03:25:36.425Z,88.31
2017-07-27T03:26:37.062Z,88.22
2017-07-27T03:27:37.695Z,88.22
2017-07-27T03:28:38.337Z,87.93
2017-07-27T03:29:38.974Z,88.12
2017-07-27T03:30:39.613Z,87.83
2017-07-27T03:31:40.243Z,88.31
2017-07-27T03:32:40.885Z,88.22
2017-07-27T03:33:41.716Z,88.31
2017-07-27T03:34:42.355Z,88.31
2017-07-27T03:35:42.989Z,88.60
2017-07-27T03:36:43.626Z,88.41
2017-07-27T03:37:44.269Z,87.93
2017-07-27T03:38:44.902Z,88.31
2017-07-27T03:39:45.536Z,88.22
2017-07-27T03:40:46.176Z,88.12
2017-07-27T03:41:46.965Z,88.22
2017-07-27T03:42:47.596Z,88.31
2017-07-27T03:43:48.246Z,88.51
2017-07-27T03:44:48.870Z,88.12
2017-07-27T03:45:49.505Z,87.83
2017-07-27T03:46:50.146Z,88.31
2017-07-27T03:47:50.779Z,88.79
2017-07-27T03:48:51.415Z,88.22
2017-07-27T03:49:52.050Z,88.12
2017-07-27T03:50:52.897Z,88.79
2017-07-27T03:51:53.532Z,88.22
2017-07-27T03:52:54.162Z,88.31
2017-07-27T03:53:54.804Z,88.31
2017-07-27T03:54:55.441Z,88.31
2017-07-27T03:55:56.071Z,88.51
2017-07-27T03:56:56.707Z,88.31
2017-07-27T03:57:57.342Z,88.12
2017-07-27T03:58:58.187Z,88.31
2017-07-27T03:59:58.816Z,88.89
2017-07-27T04:00:59.462Z,88.31
2017-07-27T04:02:00.099Z,88.41
2017-07-27T04:03:00.735Z,88.89
2017-07-27T04:04:01.365Z,88.70
2017-07-27T04:05:02.003Z,88.41
2017-07-27T04:06:02.640Z,88.12
2017-07-27T04:07:03.425Z,88.31
2017-07-27T04:08:04.057Z,88.31
2017-07-27T04:09:04.692Z,88.12
2017-07-27T04:10:05.328Z,88.51
2017-07-27T04:11:05.964Z,88.31
2017-07-27T04:12:06.604Z,88.31
2017-07-27T04:13:07.242Z,88.51
2017-07-27T04:14:07.880Z,88.22
2017-07-27T04:15:08.718Z,88.51
2017-07-27T04:16:09.356Z,88.70
2017-07-27T04:17:09.988Z,88.70
2017-07-27T04:18:10.624Z,88.51
2017-07-27T04:19:11.264Z,88.31
2017-07-27T04:20:11.900Z,88.31
2017-07-27T04:21:12.538Z,88.79
2017-07-27T04:22:13.169Z,88.51
2017-07-27T04:23:14.053Z,88.22
2017-07-27T04:24:14.689Z,88.31
2017-07-27T04:25:15.325Z,88.79
2017-07-27T04:26:15.958Z,88.51
2017-07-27T04:27:16.599Z,88.12
2017-07-27T04:28:17.238Z,88.41
2017-07-27T04:29:17.871Z,88.51
2017-07-27T04:30:18.511Z,88.22
2017-07-27T04:31:19.149Z,88.89
2017-07-27T04:32:19.981Z,88.99
2017-07-27T04:33:20.616Z,88.70
2017-07-27T04:34:21.250Z,88.79
2017-07-27T04:35:21.887Z,88.41
2017-07-27T04:36:22.527Z,87.93
2017-07-27T04:37:23.160Z,88.99
2017-07-27T04:38:23.846Z,88.51
2017-07-27T04:39:24.479Z,88.79
2017-07-27T04:40:25.324Z,88.70
2017-07-27T04:41:26.011Z,88.60
2017-07-27T04:42:26.643Z,88.70
2017-07-27T04:43:27.278Z,88.79
2017-07-27T04:44:27.919Z,88.70
2017-07-27T04:45:28.555Z,88.60
2017-07-27T04:46:29.192Z,88.89
2017-07-27T04:47:29.826Z,89.09
2017-07-27T04:48:30.666Z,88.79
2017-07-27T04:49:31.297Z,88.79
2017-07-27T04:50:31.940Z,88.99
2017-07-27T04:51:32.570Z,88.60
2017-07-27T04:52:33.206Z,88.60
2017-07-27T04:53:33.842Z,88.79
2017-07-27T04:54:34.478Z,88.51
2017-07-27T04:55:35.133Z,88.60
2017-07-27T04:56:35.959Z,88.99
2017-07-27T04:57:36.596Z,89.09
2017-07-27T04:58:37.239Z,88.51
2017-07-27T04:59:37.873Z,88.89
2017-07-27T05:00:38.504Z,88.99
2017-07-27T05:01:39.139Z,88.79
2017-07-27T05:02:39.773Z,88.56
2017-07-27T05:03:40.419Z,88.60
2017-07-27T05:04:41.053Z,88.60
2017-07-27T05:05:41.941Z,89.09
2017-07-27T05:06:42.577Z,88.56
2017-07-27T05:07:43.215Z,88.56
2017-07-27T05:08:43.846Z,89.18
2017-07-27T05:09:44.479Z,88.75
2017-07-27T05:10:45.119Z,88.51
2017-07-27T05:11:45.751Z,88.70
2017-07-27T05:12:46.389Z,88.70
2017-07-27T05:13:47.172Z,89.37
2017-07-27T05:14:47.807Z,88.60
2017-07-27T05:15:48.453Z,88.60
2017-07-27T05:16:49.137Z,89.09
2017-07-27T05:17:49.772Z,88.60
2017-07-27T05:18:50.409Z,88.70
2017-07-27T05:19:51.043Z,88.75
2017-07-27T05:20:51.688Z,88.65
2017-07-27T05:21:52.619Z,88.85
2017-07-27T05:22:53.253Z,88.56
2017-07-27T05:23:53.900Z,89.14
2017-07-27T05:24:54.535Z,89.43
2017-07-27T05:25:55.172Z,89.04
2017-07-27T05:26:55.803Z,88.99
2017-07-27T05:27:56.439Z,89.14
2017-07-27T05:28:57.075Z,89.33
2017-07-27T05:29:57.913Z,89.23
2017-07-27T05:30:58.605Z,89.37
2017-07-27T05:31:59.244Z,89.23
2017-07-27T05:32:59.881Z,89.18
2017-07-27T05:34:00.513Z,89.04
2017-07-27T05:35:01.148Z,89.43
2017-07-27T05:36:01.790Z,89.14
2017-07-27T05:37:02.420Z,89.47
2017-07-27T05:38:03.356Z,89.23
2017-07-27T05:39:03.997Z,89.33
2017-07-27T05:40:04.630Z,89.14
2017-07-27T05:41:05.266Z,89.37
2017-07-27T05:42:05.900Z,89.53
2017-07-27T05:43:06.537Z,89.37
2017-07-27T05:44:07.175Z,89.43
2017-07-27T05:45:07.805Z,88.85
2017-07-27T05:46:08.445Z,88.85
2017-07-27T05:47:09.327Z,89.43
2017-07-27T05:48:09.961Z,89.37
2017-07-27T05:49:10.606Z,89.33
2017-07-27T05:50:11.247Z,88.85
2017-07-27T05:51:11.883Z,89.04
2017-07-27T05:52:12.520Z,89.23
2017-07-27T05:53:13.155Z,89.14
2017-07-27T05:54:13.787Z,89.04
2017-07-27T05:55:14.729Z,89.14
2017-07-27T05:56:15.356Z,89.28
2017-07-27T05:57:15.991Z,89.28
2017-07-27T05:58:16.678Z,89.37
2017-07-27T05:59:17.315Z,89.14
2017-07-27T06:00:17.946Z,89.43
2017-07-27T06:01:18.588Z,89.33
2017-07-27T06:02:19.228Z,89.28
2017-07-27T06:03:20.162Z,89.18
2017-07-27T06:04:20.793Z,89.18
2017-07-27T06:05:21.428Z,89.14
2017-07-27T06:06:22.069Z,89.14
2017-07-27T06:07:22.707Z,89.23
2017-07-27T06:08:23.344Z,89.14
2017-07-27T06:09:23.988Z,89.33
2017-07-27T06:10:24.626Z,89.18
2017-07-27T06:11:25.459Z,89.18
2017-07-27T06:12:26.090Z,89.14
2017-07-27T06:13:26.734Z,89.33
2017-07-27T06:14:27.364Z,89.62
2017-07-27T06:15:28.004Z,89.53
2017-07-27T06:16:28.637Z,89.62
2017-07-27T06:17:29.272Z,89.53
2017-07-27T06:18:29.909Z,89.62
2017-07-27T06:19:30.549Z,89.23
2017-07-27T06:20:31.336Z,88.95
2017-07-27T06:21:31.971Z,89.53
2017-07-27T06:22:32.628Z,89.43
2017-07-27T06:23:33.240Z,89.62
2017-07-27T06:24:33.875Z,89.53
2017-07-27T06:25:34.510Z,89.53
2017-07-27T06:26:35.149Z,89.62
2017-07-27T06:27:35.786Z,89.91
2017-07-27T06:28:36.625Z,89.04
2017-07-27T06:29:37.263Z,89.53
2017-07-27T06:30:37.900Z,89.53
2017-07-27T06:31:38.552Z,89.62
2017-07-27T06:32:39.176Z,89.62
2017-07-27T06:33:39.809Z,89.62
2017-07-27T06:34:40.443Z,89.81
2017-07-27T06:35:41.079Z,89.53
2017-07-27T06:36:41.913Z,89.43
2017-07-27T06:37:42.552Z,89.53
2017-07-27T06:38:43.186Z,89.43
2017-07-27T06:39:43.820Z,89.53
2017-07-27T06:40:44.455Z,89.53
2017-07-27T06:41:45.090Z,89.62
2017-07-27T06:42:45.729Z,89.62
2017-07-27T06:43:46.360Z,89.62
2017-07-27T06:44:47.196Z,89.72
2017-07-27T06:45:47.832Z,89.62
2017-07-27T06:46:48.466Z,89.28
2017-07-27T06:47:49.101Z,89.67
2017-07-27T06:48:49.746Z,89.62
2017-07-27T06:49:50.377Z,89.53
2017-07-27T06:50:51.008Z,89.53
2017-07-27T06:51:51.645Z,89.62
2017-07-27T06:52:52.390Z,89.57
2017-07-27T06:53:53.022Z,89.28
2017-07-27T06:54:53.661Z,89.43
2017-07-27T06:55:54.303Z,89.28
2017-07-27T06:56:54.933Z,89.53
2017-07-27T06:57:55.570Z,89.72
2017-07-27T06:58:56.203Z,89.95
2017-07-27T06:59:56.835Z,89.62
2017-07-27T07:00:57.472Z,89.53
2017-07-27T07:01:58.257Z,89.37
2017-07-27T07:02:58.893Z,89.95
2017-07-27T07:03:59.526Z,89.53
2017-07-27T07:05:00.161Z,89.57
2017-07-27T07:06:00.802Z,89.18
2017-07-27T07:07:01.439Z,89.67
2017-07-27T07:08:02.081Z,89.95
2017-07-27T07:09:02.716Z,89.47
2017-07-27T07:10:03.548Z,88.99
2017-07-27T07:11:04.187Z,89.43
2017-07-27T07:12:04.819Z,89.62
2017-07-27T07:13:05.459Z,89.23
2017-07-27T07:14:06.096Z,89.33
2017-07-27T07:15:06.731Z,89.23
2017-07-27T07:16:07.363Z,89.57
2017-07-27T07:17:07.999Z,89.23
2017-07-27T07:18:08.794Z,89.53
2017-07-27T07:19:09.423Z,89.04
2017-07-27T07:20:10.063Z,89.72
2017-07-27T07:21:10.696Z,89.53
2017-07-27T07:22:11.337Z,89.57
2017-07-27T07:23:11.971Z,89.57
2017-07-27T07:24:12.605Z,89.43
2017-07-27T07:25:13.241Z,89.72
2017-07-27T07:26:14.075Z,89.53
2017-07-27T07:27:14.711Z,89.53
2017-07-27T07:28:15.351Z,89.53
2017-07-27T07:29:15.983Z,89.62
2017-07-27T07:30:16.616Z,89.57
2017-07-27T07:31:17.252Z,89.62
2017-07-27T07:32:17.896Z,89.23
2017-07-27T07:33:18.532Z,89.57
2017-07-27T07:34:19.164Z,89.62
2017-07-27T07:35:19.955Z,89.57
2017-07-27T07:36:20.589Z,89.57
2017-07-27T07:37:21.227Z,89.43
2017-07-27T07:38:21.855Z,89.47
2017-07-27T07:39:22.491Z,89.53
2017-07-27T07:40:23.126Z,89.47
2017-07-27T07:41:23.766Z,89.57
2017-07-27T07:42:24.400Z,89.47
2017-07-27T07:43:25.242Z,89.57
2017-07-27T07:44:25.873Z,89.47
2017-07-27T07:45:26.514Z,89.57
2017-07-27T07:46:27.147Z,89.57
2017-07-27T07:47:27.779Z,89.67
2017-07-27T07:48:28.413Z,89.67
2017-07-27T07:49:29.049Z,89.28
2017-07-27T07:50:29.689Z,89.62
2017-07-27T07:51:30.524Z,89.28
2017-07-27T07:52:31.157Z,89.37
2017-07-27T07:53:31.800Z,89.18
2017-07-27T07:54:32.428Z,89.47
2017-07-27T07:55:33.064Z,89.47
2017-07-27T07:56:33.697Z,89.47
2017-07-27T07:57:34.338Z,89.04
2017-07-27T07:58:34.976Z,89.86
2017-07-27T07:59:36.010Z,89.28
2017-07-27T08:00:36.649Z,89.18
2017-07-27T08:01:37.282Z,89.67
2017-07-27T08:02:37.917Z,89.76
2017-07-27T08:03:38.551Z,89.47
2017-07-27T08:04:39.187Z,88.99
2017-07-27T08:05:39.821Z,88.99
2017-07-27T08:06:40.457Z,89.18
2017-07-27T08:07:41.297Z,88.99
2017-07-27T08:08:41.928Z,89.28
2017-07-27T08:09:42.566Z,89.47
2017-07-27T08:10:43.199Z,89.47
2017-07-27T08:11:43.840Z,89.09
2017-07-27T08:12:44.482Z,89.47
2017-07-27T08:13:45.109Z,89.47
2017-07-27T08:14:45.746Z,89.47
2017-07-27T08:15:46.379Z,89.47
2017-07-27T08:16:47.270Z,89.09
2017-07-27T08:17:47.909Z,89.57
2017-07-27T08:18:48.549Z,89.37
2017-07-27T08:19:49.185Z,89.47
2017-07-27T08:20:49.823Z,89.37
2017-07-27T08:21:50.459Z,89.47
2017-07-27T08:22:51.099Z,89.57
2017-07-27T08:23:51.730Z,89.28
2017-07-27T08:24:52.565Z,89.47
2017-07-27T08:25:53.207Z,89.09
2017-07-27T08:26:53.840Z,89.18
2017-07-27T08:27:54.474Z,89.28
2017-07-27T08:28:55.112Z,89.18
2017-07-27T08:29:55.752Z,89.28
2017-07-27T08:30:56.390Z,89.47
2017-07-27T08:31:57.024Z,89.47
2017-07-27T08:32:57.961Z,89.95
2017-07-27T08:33:58.597Z,89.57
2017-07-27T08:34:59.238Z,89.18
2017-07-27T08:35:59.876Z,89.28
2017-07-27T08:37:00.507Z,89.18
2017-07-27T08:38:01.151Z,89.18
2017-07-27T08:39:01.789Z,89.18
2017-07-27T08:40:02.428Z,89.67
2017-07-27T08:41:03.313Z,89.37
2017-07-27T08:42:03.957Z,89.67
2017-07-27T08:43:04.588Z,89.76
2017-07-27T08:44:05.226Z,89.28
2017-07-27T08:45:05.862Z,89.47
2017-07-27T08:46:06.500Z,89.57
2017-07-27T08:47:07.135Z,89.37
2017-07-27T08:48:07.770Z,89.28
2017-07-27T08:49:08.411Z,89.57
2017-07-27T08:50:09.246Z,89.18
2017-07-27T08:51:09.885Z,89.37
2017-07-27T08:52:10.519Z,89.57
2017-07-27T08:53:11.156Z,89.57
2017-07-27T08:54:11.796Z,89.67
2017-07-27T08:55:12.432Z,89.47
2017-07-27T08:56:13.066Z,89.76
2017-07-27T08:57:13.704Z,89.67
2017-07-27T08:58:14.488Z,89.86
2017-07-27T08:59:15.136Z,90.05
2017-07-27T09:00:15.766Z,89.37
2017-07-27T09:01:16.403Z,89.37
2017-07-27T09:02:17.044Z,89.57
2017-07-27T09:03:17.691Z,89.18
2017-07-27T09:04:18.334Z,89.47
2017-07-27T09:05:18.971Z,89.57
2017-07-27T09:06:19.854Z,89.57
2017-07-27T09:07:20.494Z,89.57
2017-07-27T09:08:21.131Z,89.57
2017-07-27T09:09:21.767Z,89.76
2017-07-27T09:10:22.402Z,89.86
2017-07-27T09:11:23.044Z,89.76
2017-07-27T09:12:23.677Z,89.76
2017-07-27T09:13:24.317Z,89.18
2017-07-27T09:14:25.207Z,88.70
2017-07-27T09:15:25.841Z,88.60
2017-07-27T09:16:26.483Z,88.79
2017-07-27T09:17:27.128Z,88.70
2017-07-27T09:18:27.757Z,88.51
2017-07-27T09:19:28.393Z,88.89
2017-07-27T09:20:29.027Z,88.41
2017-07-27T09:21:29.670Z,88.31
2017-07-27T09:22:30.563Z,88.12
2017-07-27T09:23:31.195Z,88.02
2017-07-27T09:24:31.836Z,88.12
2017-07-27T09:25:32.477Z,88.12
2017-07-27T09:26:33.115Z,88.22
2017-07-27T09:27:33.746Z,88.31
2017-07-27T09:28:34.387Z,88.41
2017-07-27T09:29:35.021Z,88.12
2017-07-27T09:30:35.663Z,88.12
2017-07-27T09:31:36.545Z,88.12
2017-07-27T09:32:37.184Z,88.22
2017-07-27T09:33:37.826Z,88.41
2017-07-27T09:34:38.459Z,88.31
2017-07-27T09:35:39.095Z,88.22
2017-07-27T09:36:39.737Z,88.02
2017-07-27T09:37:40.422Z,88.31
2017-07-27T09:38:41.058Z,88.60
2017-07-27T09:39:41.894Z,88.22
2017-07-27T09:40:42.543Z,88.70
2017-07-27T09:41:43.175Z,88.70
2017-07-27T09:42:43.816Z,88.60
2017-07-27T09:43:44.460Z,88.60
2017-07-27T09:44:45.096Z,88.70
2017-07-27T09:45:45.736Z,88.89
2017-07-27T09:46:46.370Z,88.89
2017-07-27T09:47:47.356Z,88.79
2017-07-27T09:48:47.997Z,88.60
2017-07-27T09:49:48.631Z,88.79
2017-07-27T09:50:49.267Z,88.60
2017-07-27T09:51:49.906Z,88.60
2017-07-27T09:52:50.547Z,88.70
2017-07-27T09:53:51.182Z,88.89
2017-07-27T09:54:51.817Z,88.79
2017-07-27T09:55:52.755Z,88.70
2017-07-27T09:56:53.396Z,88.60
2017-07-27T09:57:54.036Z,88.79
2017-07-27T09:58:54.669Z,88.70
2017-07-27T09:59:55.313Z,88.79
2017-07-27T10:00:55.947Z,88.79
2017-07-27T10:01:56.582Z,88.79
2017-07-27T10:02:57.218Z,88.70
2017-07-27T10:03:57.866Z,88.79
2017-07-27T10:04:58.698Z,88.89
2017-07-27T10:05:59.341Z,88.99
2017-07-27T10:06:59.985Z,88.79
2017-07-27T10:08:00.627Z,88.70
2017-07-27T10:09:01.264Z,88.89
2017-07-27T10:10:01.895Z,88.60
2017-07-27T10:11:02.532Z,88.60
2017-07-27T10:12:03.168Z,88.99
2017-07-27T10:13:04.005Z,88.99
2017-07-27T10:14:04.646Z,88.51
2017-07-27T10:15:05.287Z,88.60
2017-07-27T10:16:05.920Z,88.70
2017-07-27T10:17:06.570Z,88.89
2017-07-27T10:18:07.151Z,88.51
2017-07-27T10:19:07.787Z,88.99
2017-07-27T10:20:08.430Z,88.75
2017-07-27T10:21:09.318Z,88.84
2017-07-27T10:22:09.952Z,88.99
2017-07-27T10:23:10.588Z,88.84
2017-07-27T10:24:11.278Z,88.93
2017-07-27T10:25:11.919Z,88.65
2017-07-27T10:26:12.552Z,88.75
2017-07-27T10:27:13.190Z,88.93
2017-07-27T10:28:13.826Z,88.55
2017-07-27T10:29:14.669Z,88.75
2017-07-27T10:30:15.306Z,88.93
2017-07-27T10:31:15.944Z,88.65
2017-07-27T10:32:16.579Z,88.36
2017-07-27T10:33:17.214Z,88.84
2017-07-27T10:34:17.855Z,88.65
2017-07-27T10:35:18.494Z,88.93
2017-07-27T10:36:19.128Z,88.36
2017-07-27T10:37:20.015Z,88.55
2017-07-27T10:38:20.648Z,88.65
2017-07-27T10:39:21.297Z,88.75
2017-07-27T10:40:21.941Z,88.75
2017-07-27T10:41:22.569Z,88.65
2017-07-27T10:42:23.212Z,88.65
2017-07-27T10:43:23.851Z,88.84
2017-07-27T10:44:24.486Z,88.65
2017-07-27T10:45:25.121Z,89.03
2017-07-27T10:46:26.007Z,88.84
2017-07-27T10:47:26.601Z,88.84
2017-07-27T10:48:27.234Z,88.55
2017-07-27T10:49:27.870Z,89.03
2017-07-27T10:50:28.506Z,88.93
2017-07-27T10:51:29.141Z,88.93
2017-07-27T10:52:29.781Z,88.75
2017-07-27T10:53:30.421Z,88.93
2017-07-27T10:54:31.310Z,89.13
2017-07-27T10:55:31.950Z,89.23
2017-07-27T10:56:32.589Z,88.55
2017-07-27T10:57:33.227Z,88.89
2017-07-27T10:58:33.860Z,89.47
2017-07-27T10:59:34.504Z,88.98
2017-07-27T11:00:35.143Z,88.84
2017-07-27T11:01:35.780Z,88.89
2017-07-27T11:02:36.613Z,88.69
2017-07-27T11:03:37.248Z,89.13
2017-07-27T11:04:37.890Z,89.03
2017-07-27T11:05:38.521Z,89.65
2017-07-27T11:06:39.159Z,89.27
2017-07-27T11:07:39.795Z,89.27
2017-07-27T11:08:40.431Z,89.27
2017-07-27T11:09:41.069Z,88.79
2017-07-27T11:10:42.009Z,89.37
2017-07-27T11:11:42.644Z,89.07
2017-07-27T11:12:43.283Z,88.98
2017-07-27T11:13:43.919Z,89.17
2017-07-27T11:14:44.563Z,89.56
2017-07-27T11:15:45.195Z,89.17
2017-07-27T11:16:45.831Z,88.69
2017-07-27T11:17:46.473Z,89.17
2017-07-27T11:18:47.113Z,88.79
2017-07-27T11:19:48.158Z,88.89
2017-07-27T11:20:48.788Z,88.79
2017-07-27T11:21:49.429Z,88.89
2017-07-27T11:22:50.074Z,88.79
2017-07-27T11:23:50.711Z,88.69
2017-07-27T11:24:51.343Z,89.03
2017-07-27T11:25:51.982Z,89.07
2017-07-27T11:26:52.618Z,88.50
2017-07-27T11:27:53.510Z,88.79
2017-07-27T11:28:54.149Z,88.79
2017-07-27T11:29:54.783Z,88.89
2017-07-27T11:30:55.420Z,88.79
2017-07-27T11:31:56.055Z,88.89
2017-07-27T11:32:56.693Z,88.98
2017-07-27T11:33:57.330Z,88.59
2017-07-27T11:34:57.965Z,88.89
2017-07-27T11:35:58.802Z,88.69
2017-07-27T11:36:59.438Z,88.59
2017-07-27T11:38:00.081Z,88.89
2017-07-27T11:39:00.721Z,88.98
2017-07-27T11:40:01.362Z,88.79
2017-07-27T11:41:02.000Z,88.59
2017-07-27T11:42:02.639Z,88.98
2017-07-27T11:43:03.272Z,88.79
2017-07-27T11:44:04.272Z,88.89
2017-07-27T11:45:04.913Z,88.79
2017-07-27T11:46:05.547Z,88.21
2017-07-27T11:47:06.187Z,88.40
2017-07-27T11:48:06.826Z,88.40
2017-07-27T11:49:07.460Z,88.40
2017-07-27T11:50:08.104Z,88.31
2017-07-27T11:51:08.738Z,88.50
2017-07-27T11:52:09.624Z,88.02
2017-07-27T11:53:10.267Z,88.31
2017-07-27T11:54:10.912Z,88.21
2017-07-27T11:55:11.547Z,88.21
2017-07-27T11:56:12.179Z,88.21
2017-07-27T11:57:12.826Z,88.02
2017-07-27T11:58:13.468Z,87.92
2017-07-27T11:59:14.106Z,88.11
2017-07-27T12:00:14.741Z,87.92
2017-07-27T12:01:15.577Z,88.21
2017-07-27T12:02:16.221Z,88.02
2017-07-27T12:03:16.855Z,88.11
2017-07-27T12:04:17.502Z,87.92
2017-07-27T12:05:18.139Z,88.02
2017-07-27T12:06:18.778Z,88.02
2017-07-27T12:07:19.412Z,88.21
2017-07-27T12:08:20.048Z,87.92
2017-07-27T12:09:20.839Z,87.92
2017-07-27T12:10:21.471Z,88.21
2017-07-27T12:11:22.108Z,88.21
2017-07-27T12:12:22.745Z,88.02
2017-07-27T12:13:23.338Z,87.92
2017-07-27T12:14:23.972Z,87.92
2017-07-27T12:15:24.610Z,88.31
2017-07-27T12:16:25.245Z,88.31
2017-07-27T12:17:26.089Z,87.92
2017-07-27T12:18:26.728Z,88.02
2017-07-27T12:19:27.363Z,88.31
2017-07-27T12:20:28.000Z,88.31
2017-07-27T12:21:28.636Z,87.73
2017-07-27T12:22:29.278Z,88.21
2017-07-27T12:23:29.913Z,88.11
2017-07-27T12:24:30.551Z,88.21
2017-07-27T12:25:31.444Z,88.11
2017-07-27T12:26:32.084Z,88.31
2017-07-27T12:27:32.675Z,87.82
2017-07-27T12:28:33.310Z,87.82
2017-07-27T12:29:33.948Z,88.02
2017-07-27T12:30:34.635Z,88.02
2017-07-27T12:31:35.280Z,87.73
2017-07-27T12:32:35.967Z,87.92
2017-07-27T12:33:36.657Z,88.59
2017-07-27T12:34:37.544Z,88.89
2017-07-27T12:35:38.181Z,88.98
2017-07-27T12:36:38.817Z,88.69
2017-07-27T12:37:39.456Z,88.79
2017-07-27T12:38:40.099Z,88.59
2017-07-27T12:39:40.737Z,88.59
2017-07-27T12:40:41.374Z,88.31
2017-07-27T12:41:42.017Z,88.59
2017-07-27T12:42:42.952Z,88.25
2017-07-27T12:43:43.590Z,88.31
2017-07-27T12:44:44.225Z,88.45
2017-07-27T12:45:44.865Z,88.15
2017-07-27T12:46:45.500Z,88.11
2017-07-27T12:47:46.137Z,87.82
2017-07-27T12:48:46.779Z,87.96
2017-07-27T12:49:47.418Z,87.87
2017-07-27T12:50:48.309Z,88.02
2017-07-27T12:51:48.893Z,88.93
2017-07-27T12:52:49.529Z,88.54
2017-07-27T12:53:50.167Z,88.89
2017-07-27T12:54:50.810Z,89.03
2017-07-27T12:55:51.442Z,88.83
2017-07-27T12:56:52.080Z,88.83
2017-07-27T12:57:52.717Z,88.73
2017-07-27T12:58:53.661Z,88.73
2017-07-27T12:59:54.299Z,88.73
2017-07-27T13:00:54.939Z,88.73